Time;durP1;ratioP1;P1;durP2;ratioP2;P2;SDS_P1;SDS_P2;PMS_P1;PMS_P2;Temp;Humidity;BMP_temperature;BMP_pressure;BME280_temperature;BME280_humidity;BME280_pressure;Samples;Min_cycle;Max_cycle;Signal;HPM_P1;HPM_P2
2022/12/17 13:06:22;;;;;;;69.80;40.97;;;;;;;;;;5126772;28;20774;-74
2022/12/17 13:11:47;;;;;;;64.22;39.55;;;;;;;;;;5063020;28;20413;-74
2022/12/17 13:17:22;;;;;;;66.13;36.53;;;;;;;;;;5100066;27;20988;-74
2022/12/17 13:23:19;;;;;;;;;;;;;;;;;;;;;
2022/12/17 13:25:56;;;;;;;;;;;;;;;;;;;;;
2022/12/17 13:31:50;;;;;;;;;;;;;;;;;;;;;
2022/12/17 13:34:18;;;;;;;58.70;40.20;;;;;;;;;;5087922;28;20805;-74
2022/12/17 13:37:37;;;;;;;;;;;;;;;;;;;;;
2022/12/17 13:40:02;;;;;;;;;;;;;;;;;;;;;
2022/12/17 13:42:33;;;;;;;58.90;39.90;;;;;;;;;;5086410;28;20421;-75
2022/12/17 13:45:32;;;;;;;;;;;;;;;;;;;;;
2022/12/17 13:48:00;;;;;;;63.83;40.42;;;;;;;;;;5041114;28;20519;-75
2022/12/17 13:50:32;;;;;;;59.45;39.95;;;;;;;;;;5079770;28;20514;-75
2022/12/17 13:53:37;;;;;;;;;;;;;;;;;;;;;
2022/12/17 13:56:19;;;;;;;;;;;;;;;;;;;;;
2022/12/17 13:58:52;;;;;;;63.80;42.08;;;;;;;;;;5072441;28;20429;-75
2022/12/17 14:04:48;;;;;;;;;;;;;;;;;;;;;
2022/12/17 14:07:14;;;;;;;60.38;39.63;;;;;;;;;;5069304;28;20425;-76
2022/12/17 14:26:12;;;;;;;63.78;40.00;;;;;;;;;;6295591;22;20374;-74
2022/12/17 14:31:56;;;;;;;60.55;39.38;;;;;;;;;;6251920;22;20393;-75
2022/12/17 14:34:40;;;;;;;;;;;;;;;;;;;;;
2022/12/17 14:37:24;;;;;;;62.45;37.53;;;;;;;;;;6278370;22;20436;-74
2022/12/17 14:40:01;;;;;;;;;;;;;;;;;;;;;
2022/12/17 14:45:38;;;;;;;60.88;38.63;;;;;;;;;;6267614;22;20366;-74
2022/12/17 14:51:32;;;;;;;62.78;39.00;;;;;;;;;;6278779;22;20369;-75
2022/12/17 14:54:17;;;;;;;;;;;;;;;;;;;;;
2022/12/17 14:56:56;;;;;;;;;;;;;;;;;;;;;
2022/12/17 14:59:33;;;;;;;59.60;37.58;;;;;;;;;;6278118;22;20432;-75
2022/12/17 15:02:26;;;;;;;;;;;;;;;;;;;;;
2022/12/17 15:05:04;;;;;;;61.63;36.78;;;;;;;;;;6279695;22;20369;-75
2022/12/17 15:08:08;;;;;;;;;;;;;;;;;;;;;
2022/12/17 15:10:38;;;;;;;57.20;35.38;;;;;;;;;;6277642;22;20448;-76
2022/12/17 15:13:06;;;;;;;61.05;33.00;;;;;;;;;;6277784;22;20225;-75
2022/12/17 15:18:08;;;;;;;63.63;30.53;;;;;;;;;;6245327;23;20210;-69
2022/12/17 15:20:34;;;;;;;62.27;35.43;;;;;;;;;;6222925;23;20430;-69
2022/12/17 15:23:00;;;;;;;61.90;30.67;;;;;;;;;;6245454;23;20366;-69
2022/12/17 15:25:25;;;;;;;70.07;33.57;;;;;;;;;;6217212;23;20378;-69
2022/12/17 15:27:51;;;;;;;64.93;31.97;;;;;;;;;;6244504;23;20397;-69
2022/12/17 15:30:16;;;;;;;76.00;33.60;;;;;;;;;;6219717;23;20158;-69
2022/12/17 15:32:42;;;;;;;75.10;32.30;;;;;;;;;;6244607;23;20210;-69
2022/12/17 15:35:08;;;;;;;67.07;31.00;;;;;;;;;;6219859;23;20147;-69
2022/12/17 15:40:10;;;;;;;68.97;30.57;;;;;;;;;;5074306;27;1392054;-69
2022/12/17 15:45:20;;;;;;;73.47;31.70;;;;;;;;;;5108369;28;20208;-69
2022/12/17 15:47:45;;;;;;;78.37;32.97;;;;;;;;;;5103325;28;20429;-68
2022/12/17 15:50:10;;;;;;;75.23;30.57;;;;;;;;;;5088636;28;20167;-68
2022/12/17 15:52:36;;;;;;;73.73;31.77;;;;;;;;;;5084098;28;20178;-69
2022/12/17 15:55:01;;;;;;;67.73;29.53;;;;;;;;;;5086737;28;20605;-68
2022/12/17 16:00:20;;;;;;;67.20;29.97;;;;;;;;;;5083094;27;20573;-69
2022/12/17 16:02:47;;;;;;;69.83;31.43;;;;;;;;;;5078262;28;20882;-68
2022/12/17 16:05:12;;;;;;;77.40;31.03;;;;;;;;;;5081292;28;20662;-68
2022/12/17 16:10:14;;;;;;;74.03;29.90;;;;;;;;;;5103612;27;20499;-69
2022/12/17 16:12:39;;;;;;;76.17;32.70;;;;;;;;;;5090599;28;20527;-69
2022/12/17 16:15:05;;;;;;;70.00;29.47;;;;;;;;;;5101189;28;20663;-69
2022/12/17 16:17:30;;;;;;;68.90;30.77;;;;;;;;;;5104027;27;20187;-69
2022/12/17 16:19:56;;;;;;;75.90;29.13;;;;;;;;;;5094875;27;20467;-72
2022/12/17 16:22:21;;;;;;;71.67;28.20;;;;;;;;;;5104582;27;20246;-71
2022/12/17 16:24:47;;;;;;;71.50;29.97;;;;;;;;;;5116095;27;20194;-72
2022/12/17 16:27:12;;;;;;;68.13;29.20;;;;;;;;;;5113438;27;20181;-72
2022/12/17 16:29:38;;;;;;;66.83;28.47;;;;;;;;;;5113050;27;20205;-72
2022/12/17 16:32:03;;;;;;;74.03;27.67;;;;;;;;;;5111476;27;20281;-72
2022/12/17 16:34:29;;;;;;;75.50;28.97;;;;;;;;;;5121544;27;20169;-71
2022/12/17 16:36:54;;;;;;;68.50;28.53;;;;;;;;;;5116259;27;20245;-71
2022/12/17 16:39:19;;;;;;;75.03;28.73;;;;;;;;;;5105206;27;20209;-71
2022/12/17 16:41:45;;;;;;;81.10;28.70;;;;;;;;;;5120776;27;20613;-72
2022/12/17 16:44:11;;;;;;;75.80;28.23;;;;;;;;;;5092786;28;20227;-72
2022/12/17 16:46:40;;;;;;;78.80;29.73;;;;;;;;;;5115421;27;20656;-71
2022/12/17 16:49:15;;;;;;;68.57;27.70;;;;;;;;;;5099691;27;20202;-71
2022/12/17 16:51:41;;;;;;;66.00;27.70;;;;;;;;;;5101192;27;20439;-71
2022/12/17 16:54:07;;;;;;;77.57;28.43;;;;;;;;;;5120709;27;20444;-71
2022/12/17 16:56:32;;;;;;;71.87;29.43;;;;;;;;;;5115515;27;20211;-71
2022/12/17 16:58:58;;;;;;;76.23;29.30;;;;;;;;;;5102782;28;20491;-71
2022/12/17 17:01:24;;;;;;;78.33;29.37;;;;;;;;;;5112712;27;21520;-71
2022/12/17 17:03:50;;;;;;;73.00;29.53;;;;;;;;;;5115748;27;20174;-71
2022/12/17 17:06:16;;;;;;;87.27;32.40;;;;;;;;;;5114975;27;20465;-71
2022/12/17 17:08:41;;;;;;;76.53;27.83;;;;;;;;;;5120517;27;20214;-70
2022/12/17 17:11:11;;;;;;;66.60;28.03;;;;;;;;;;5113551;27;20726;-70
2022/12/17 17:13:37;;;;;;;78.13;31.47;;;;;;;;;;5119418;27;20552;-71
2022/12/17 17:16:03;;;;;;;79.60;30.70;;;;;;;;;;5095653;28;20435;-71
2022/12/17 17:18:28;;;;;;;81.47;31.10;;;;;;;;;;5107945;27;20284;-71
2022/12/17 17:20:54;;;;;;;83.63;30.07;;;;;;;;;;5105037;27;20320;-70
2022/12/17 17:23:22;;;;;;;88.67;30.43;;;;;;;;;;5090194;28;20262;-71
2022/12/17 17:25:47;;;;;;;91.87;34.30;;;;;;;;;;5097864;27;20427;-71
2022/12/17 17:28:13;;;;;;;86.17;32.27;;;;;;;;;;5102917;27;20470;-71
2022/12/17 17:30:38;;;;;;;98.67;33.77;;;;;;;;;;5096777;27;20181;-71
2022/12/17 17:33:03;;;;;;;81.33;31.13;;;;;;;;;;5087560;28;20179;-71
2022/12/17 17:38:11;;;;;;;82.73;29.67;;;;;;;;;;5045313;28;21050;-68
2022/12/17 17:40:37;;;;;;;88.50;31.83;;;;;;;;;;5045166;28;20450;-68
2022/12/17 17:43:02;;;;;;;85.43;33.07;;;;;;;;;;5043272;28;20180;-67
2022/12/17 17:45:27;;;;;;;93.40;33.53;;;;;;;;;;5039225;28;20186;-68
2022/12/17 17:47:53;;;;;;;92.73;34.03;;;;;;;;;;5052715;28;20292;-68
2022/12/17 17:50:19;;;;;;;97.80;36.53;;;;;;;;;;5051170;28;20189;-68
2022/12/17 17:52:44;;;;;;;93.33;36.30;;;;;;;;;;5050283;28;20633;-68
2022/12/17 17:55:09;;;;;;;97.90;34.30;;;;;;;;;;5051641;28;20521;-69
2022/12/17 17:57:35;;;;;;;87.63;32.67;;;;;;;;;;5056774;28;20175;-69
2022/12/17 18:00:01;;;;;;;83.77;32.73;;;;;;;;;;5050782;28;20716;-69
2022/12/17 18:02:26;;;;;;;79.63;33.97;;;;;;;;;;5043752;28;20184;-69
2022/12/17 18:04:52;;;;;;;95.47;37.00;;;;;;;;;;5054065;28;20425;-69
2022/12/17 18:07:17;;;;;;;94.00;37.83;;;;;;;;;;5044879;28;20235;-69
2022/12/17 18:09:42;;;;;;;94.97;35.27;;;;;;;;;;5051989;28;20203;-69
2022/12/17 18:14:51;;;;;;;94.17;36.73;;;;;;;;;;5050038;28;20190;-68
2022/12/17 18:17:17;;;;;;;94.13;38.30;;;;;;;;;;5048577;28;20753;-71
2022/12/17 18:19:42;;;;;;;109.23;39.53;;;;;;;;;;5051353;28;20204;-72
2022/12/17 18:22:07;;;;;;;102.33;42.53;;;;;;;;;;5054723;28;20670;-72
2022/12/17 18:24:33;;;;;;;102.93;39.30;;;;;;;;;;5047045;28;20183;-71
2022/12/17 18:26:58;;;;;;;96.37;39.90;;;;;;;;;;5041656;28;20208;-70
2022/12/17 18:29:25;;;;;;;104.03;41.70;;;;;;;;;;5034834;28;20191;-71
2022/12/17 18:31:51;;;;;;;99.10;39.97;;;;;;;;;;5045486;28;20544;-71
2022/12/17 18:34:18;;;;;;;103.70;44.67;;;;;;;;;;5053167;28;20422;-71
2022/12/17 18:36:44;;;;;;;98.33;41.40;;;;;;;;;;5050442;28;20448;-71
2022/12/17 18:39:10;;;;;;;99.57;39.60;;;;;;;;;;5049437;28;20451;-71
2022/12/17 18:44:20;;;;;;;103.00;41.17;;;;;;;;;;5047466;28;20449;-70
2022/12/17 18:46:45;;;;;;;99.30;42.40;;;;;;;;;;5048805;28;20872;-71
2022/12/17 18:49:13;;;;;;;97.17;42.20;;;;;;;;;;5040874;28;20197;-71
2022/12/17 18:51:40;;;;;;;104.27;41.70;;;;;;;;;;5044439;28;20184;-71
2022/12/17 18:54:10;;;;;;;112.20;41.65;;;;;;;;;;5032454;28;20569;-70
2022/12/17 18:56:36;;;;;;;95.23;40.10;;;;;;;;;;5028296;28;20195;-71
2022/12/17 18:59:02;;;;;;;108.23;43.27;;;;;;;;;;5037052;28;20689;-71
2022/12/17 19:01:31;;;;;;;95.80;41.23;;;;;;;;;;5037071;28;21035;-71
2022/12/17 19:03:59;;;;;;;88.43;39.97;;;;;;;;;;5037354;28;20186;-72
2022/12/17 19:06:25;;;;;;;100.80;42.60;;;;;;;;;;5037741;28;20984;-72
2022/12/17 19:08:50;;;;;;;103.03;43.40;;;;;;;;;;5038347;28;20518;-72
2022/12/17 19:11:17;;;;;;;111.27;47.80;;;;;;;;;;5037601;28;20202;-71
2022/12/17 19:13:43;;;;;;;99.20;44.93;;;;;;;;;;5039245;28;20194;-70
2022/12/17 19:16:10;;;;;;;111.93;47.00;;;;;;;;;;5037021;28;20431;-71
2022/12/17 19:18:36;;;;;;;106.60;45.73;;;;;;;;;;5040309;28;20447;-72
2022/12/17 19:21:01;;;;;;;108.00;47.77;;;;;;;;;;5032753;28;20434;-72
2022/12/17 19:23:28;;;;;;;113.33;50.03;;;;;;;;;;5036537;28;20176;-72
2022/12/17 19:25:54;;;;;;;109.33;46.97;;;;;;;;;;5039966;28;20215;-72
2022/12/17 19:28:19;;;;;;;110.50;47.93;;;;;;;;;;5032832;28;20949;-71
2022/12/17 19:30:45;;;;;;;109.27;46.00;;;;;;;;;;5038879;28;20173;-71
2022/12/17 19:33:10;;;;;;;114.73;46.43;;;;;;;;;;5040772;28;20947;-71
2022/12/17 19:35:36;;;;;;;117.40;50.03;;;;;;;;;;5033578;28;20176;-69
2022/12/17 19:38:01;;;;;;;112.40;48.23;;;;;;;;;;5044545;28;20214;-69
2022/12/17 19:40:26;;;;;;;123.57;49.50;;;;;;;;;;5038088;28;20431;-69
2022/12/17 19:42:55;;;;;;;109.07;50.10;;;;;;;;;;5034894;28;20672;-69
2022/12/17 19:45:20;;;;;;;111.77;50.47;;;;;;;;;;5041472;28;20286;-69
2022/12/17 19:47:46;;;;;;;120.70;50.93;;;;;;;;;;5036300;28;20601;-69
2022/12/17 19:50:11;;;;;;;117.57;48.13;;;;;;;;;;5035668;28;20183;-69
2022/12/17 19:52:36;;;;;;;121.60;49.67;;;;;;;;;;5031281;28;20679;-69
2022/12/17 19:55:02;;;;;;;116.10;48.80;;;;;;;;;;5038500;28;20173;-69
2022/12/17 19:57:27;;;;;;;121.40;52.93;;;;;;;;;;5038475;28;20277;-71
2022/12/17 19:59:52;;;;;;;116.37;49.13;;;;;;;;;;5036045;28;20172;-70
2022/12/17 20:02:18;;;;;;;113.13;47.57;;;;;;;;;;5036811;28;20190;-70
2022/12/17 20:04:43;;;;;;;111.83;46.83;;;;;;;;;;5033865;28;20582;-70
2022/12/17 20:07:09;;;;;;;120.77;49.63;;;;;;;;;;5035389;28;20208;-71
2022/12/17 20:09:34;;;;;;;105.90;49.50;;;;;;;;;;5036975;28;20221;-71
2022/12/17 20:11:59;;;;;;;120.90;48.37;;;;;;;;;;5036597;28;20216;-71
2022/12/17 20:14:25;;;;;;;117.57;51.60;;;;;;;;;;5038648;28;20679;-71
2022/12/17 20:16:54;;;;;;;110.77;50.60;;;;;;;;;;5035145;28;20665;-70
2022/12/17 20:19:21;;;;;;;123.00;52.37;;;;;;;;;;5038741;28;20197;-70
2022/12/17 20:21:47;;;;;;;119.07;51.40;;;;;;;;;;5036962;28;20986;-71
2022/12/17 20:24:15;;;;;;;110.10;58.60;;;;;;;;;;5038739;28;20414;-71
2022/12/17 20:26:41;;;;;;;106.23;49.10;;;;;;;;;;5037756;28;20319;-71
2022/12/17 20:29:06;;;;;;;119.93;54.00;;;;;;;;;;5039284;28;20932;-71
2022/12/17 20:31:32;;;;;;;115.80;50.90;;;;;;;;;;5037235;28;20689;-71
2022/12/17 20:33:59;;;;;;;119.37;53.60;;;;;;;;;;5038683;28;20425;-71
2022/12/17 20:36:24;;;;;;;133.00;53.67;;;;;;;;;;5041144;28;20199;-71
2022/12/17 20:38:50;;;;;;;111.57;50.00;;;;;;;;;;5033626;28;20898;-71
2022/12/17 20:41:19;;;;;;;112.50;47.77;;;;;;;;;;5040371;28;20187;-71
2022/12/17 20:43:45;;;;;;;112.83;51.80;;;;;;;;;;5037111;28;20171;-71
2022/12/17 20:46:10;;;;;;;118.07;49.37;;;;;;;;;;5036824;28;20469;-71
2022/12/17 20:48:37;;;;;;;100.17;44.27;;;;;;;;;;5042456;28;20563;-68
2022/12/17 20:51:06;;;;;;;109.47;48.80;;;;;;;;;;5041940;28;20210;-69
2022/12/17 20:53:34;;;;;;;110.73;48.20;;;;;;;;;;5037655;28;20427;-71
2022/12/17 20:56:04;;;;;;;111.13;45.10;;;;;;;;;;5041907;28;20406;-71
2022/12/17 20:58:29;;;;;;;108.20;46.07;;;;;;;;;;5035822;28;20469;-71
2022/12/17 21:01:08;;;;;;;102.73;43.23;;;;;;;;;;5034679;28;20417;-71
2022/12/17 21:03:34;;;;;;;107.40;45.80;;;;;;;;;;5041180;28;20231;-71
2022/12/17 21:06:19;;;;;;;104.20;44.13;;;;;;;;;;5036926;28;20414;-71
2022/12/17 21:08:47;;;;;;;97.70;45.80;;;;;;;;;;5036620;28;20199;-72
2022/12/17 21:11:13;;;;;;;107.40;49.37;;;;;;;;;;5033827;28;20420;-72
2022/12/17 21:13:38;;;;;;;112.33;49.63;;;;;;;;;;5032559;28;20422;-72
2022/12/17 21:16:06;;;;;;;105.50;47.57;;;;;;;;;;5030187;28;20196;-72
2022/12/17 21:31:02;;;;;;;;;;;;;;;;;;;;;
2022/12/17 21:33:33;;;;;;;105.38;55.72;;;;;;;;;;6253479;23;20757;-74
2022/12/17 21:36:02;;;;;;;96.45;51.40;;;;;;;;;;6222994;23;20738;-74
2022/12/17 21:38:41;;;;;;;98.20;45.00;;;;;;;;;;6250641;23;20170;-74
2022/12/17 21:50:15;;;;;;;86.90;48.15;;;;;;;;;;4982047;28;20440;-76
2022/12/17 21:53:19;;;;;;;;;;;;;;;;;;;;;
2022/12/17 21:55:42;;;;;;;81.75;45.53;;;;;;;;;;5001290;28;20452;-76
2022/12/17 21:58:17;;;;;;;;;;;;;;;;;;;;;
2022/12/17 22:00:53;;;;;;;;;;;;;;;;;;;;;
2022/12/17 22:03:24;;;;;;;82.53;48.40;;;;;;;;;;5007739;28;20420;-75
2022/12/17 22:05:54;;;;;;;89.90;42.17;;;;;;;;;;5006176;28;20543;-75
2022/12/17 22:08:50;;;;;;;;;;;;;;;;;;;;;
2022/12/17 22:14:11;;;;;;;;;;;;;;;;;;;;;
2022/12/17 22:17:32;;;;;;;;;;;;;;;;;;;;;
2022/12/17 22:22:48;;;;;;;81.97;48.53;;;;;;;;;;5050487;28;20776;-76
2022/12/17 22:28:06;;;;;;;83.43;48.42;;;;;;;;;;5055141;28;20410;-76
2022/12/17 22:33:42;;;;;;;80.70;41.03;;;;;;;;;;5058969;28;20193;-76
